ZKJMC NZSD-NZAR

Flight info

Callsign ZKJMC
Flight time 1h 30m
Altitude 2500
Route PORT WAIKATO ARDMORE
Aircraft C172/L-V/N

Departure

Time 2026-04-19 00:48
Airport Stratford Airport (NZSD)

Arrival

Time 2026-04-19 02:18
Airport Ardmore Airport (NZAR)
Time Latitude Longitude Altitude Speed Heading
2026-04-19 00:38 -39.31839 174.30734 937 ft 0 kts 248°
2026-04-19 00:42 -39.31840 174.30731 937 ft 0 kts 264°
2026-04-19 00:43 -39.31839 174.30724 937 ft 2 kts 289°
2026-04-19 00:43 -39.31813 174.30701 937 ft 5 kts 340°
2026-04-19 00:43 -39.31804 174.30699 937 ft 1 kts 348°
2026-04-19 00:43 -39.31791 174.30695 938 ft 0 kts 341°
2026-04-19 00:44 -39.31788 174.30693 938 ft 1 kts 336°
2026-04-19 00:44 -39.31787 174.30693 938 ft 0 kts 334°
2026-04-19 00:44 -39.31786 174.30693 938 ft 0 kts 334°
2026-04-19 00:44 -39.31784 174.30692 938 ft 0 kts 335°
2026-04-19 00:45 -39.31759 174.30681 939 ft 6 kts 337°
2026-04-19 00:45 -39.31726 174.30644 941 ft 5 kts 299°
2026-04-19 00:45 -39.31712 174.30605 943 ft 0 kts 314°
2026-04-19 00:46 -39.31702 174.30580 944 ft 10 kts 294°
2026-04-19 00:46 -39.31667 174.30464 949 ft 11 kts 292°
2026-04-19 00:47 -39.31644 174.30382 952 ft 7 kts 270°
2026-04-19 00:47 -39.31631 174.30336 954 ft 5 kts 15°
2026-04-19 00:47 -39.31652 174.30455 950 ft 37 kts 112°
2026-04-19 00:47 -39.31814 174.30948 962 ft 75 kts 99°
2026-04-19 00:48 -39.31977 174.31610 1161 ft 74 kts 89°
2026-04-19 00:48 -39.32084 174.32269 1360 ft 76 kts 86°
2026-04-19 00:48 -39.32063 174.32922 1542 ft 70 kts 57°
2026-04-19 00:48 -39.31723 174.33342 1679 ft 70 kts 20°
2026-04-19 00:49 -39.31268 174.33481 1867 ft 69 kts
2026-04-19 00:49 -39.30793 174.33565 2044 ft 70 kts
2026-04-19 00:49 -39.30327 174.33655 2252 ft 67 kts
2026-04-19 00:49 -39.29846 174.33682 2406 ft 71 kts
2026-04-19 00:50 -39.29337 174.33775 2545 ft 75 kts
2026-04-19 00:50 -39.28764 174.33908 2568 ft 91 kts
2026-04-19 00:50 -39.28126 174.34039 2635 ft 94 kts
2026-04-19 00:50 -39.27465 174.34166 2678 ft 97 kts
2026-04-19 00:51 -39.26792 174.34312 2745 ft 96 kts
2026-04-19 00:51 -39.26120 174.34444 2775 ft 98 kts
2026-04-19 00:51 -39.25435 174.34587 2792 ft 99 kts
2026-04-19 00:51 -39.24759 174.34711 2852 ft 97 kts
2026-04-19 00:52 -39.24079 174.34831 2854 ft 100 kts
2026-04-19 00:52 -39.23392 174.34970 2879 ft 100 kts
2026-04-19 00:52 -39.22706 174.35121 2886 ft 101 kts 11°
2026-04-19 00:52 -39.22009 174.35271 2860 ft 102 kts
2026-04-19 00:53 -39.21288 174.35411 2810 ft 103 kts
2026-04-19 00:53 -39.20580 174.35542 2799 ft 102 kts
2026-04-19 00:53 -39.19863 174.35667 2762 ft 103 kts
2026-04-19 00:53 -39.19162 174.35780 2790 ft 99 kts
2026-04-19 00:54 -39.18450 174.35912 2712 ft 106 kts
2026-04-19 00:54 -39.17744 174.36092 2698 ft 102 kts 17°
2026-04-19 00:54 -39.17060 174.36308 2723 ft 99 kts 12°
2026-04-19 00:54 -39.16368 174.36472 2681 ft 103 kts 12°
2026-04-19 00:55 -39.15664 174.36638 2670 ft 102 kts
2026-04-19 00:55 -39.14956 174.36758 2653 ft 103 kts
2026-04-19 00:55 -39.14238 174.36871 2628 ft 102 kts 10°
2026-04-19 00:55 -39.13542 174.37047 2622 ft 101 kts 13°
2026-04-19 00:56 -39.12841 174.37253 2567 ft 104 kts 14°
2026-04-19 00:56 -39.12145 174.37511 2569 ft 101 kts 17°
2026-04-19 00:56 -39.11469 174.37770 2558 ft 102 kts 17°
2026-04-19 00:56 -39.10787 174.38032 2520 ft 104 kts 18°
2026-04-19 00:57 -39.10101 174.38307 2542 ft 101 kts 19°
2026-04-19 00:57 -39.09438 174.38609 2507 ft 101 kts 20°
2026-04-19 00:57 -39.08773 174.38924 2471 ft 102 kts 19°
2026-04-19 00:57 -39.08114 174.39235 2457 ft 101 kts 19°
2026-04-19 00:58 -39.07452 174.39537 2433 ft 100 kts 18°
2026-04-19 00:58 -39.06782 174.39806 2373 ft 102 kts 17°
2026-04-19 00:58 -39.06096 174.40063 2373 ft 101 kts 18°
2026-04-19 00:58 -39.05427 174.40309 2349 ft 100 kts 15°
2026-04-19 00:59 -39.04726 174.40471 2304 ft 102 kts
2026-04-19 00:59 -39.04023 174.40565 2255 ft 104 kts
2026-04-19 00:59 -39.03292 174.40614 2240 ft 100 kts
2026-04-19 00:59 -39.02595 174.40610 2205 ft 101 kts
2026-04-19 01:00 -39.01894 174.40515 2155 ft 102 kts 355°
2026-04-19 01:00 -39.01187 174.40337 2136 ft 102 kts 353°
2026-04-19 01:00 -39.00498 174.40283 2138 ft 99 kts
2026-04-19 01:00 -38.99848 174.40626 2092 ft 101 kts 26°
2026-04-19 01:01 -38.99253 174.41078 2113 ft 98 kts 31°
2026-04-19 01:01 -38.98677 174.41586 2078 ft 100 kts 34°
2026-04-19 01:01 -38.98134 174.42149 2032 ft 103 kts 39°
2026-04-19 01:01 -38.97607 174.42744 2056 ft 99 kts 39°
2026-04-19 01:02 -38.97079 174.43346 1984 ft 103 kts 41°
2026-04-19 01:02 -38.96558 174.43956 2006 ft 97 kts 38°
2026-04-19 01:02 -38.96051 174.44493 2048 ft 95 kts 38°
2026-04-19 01:02 -38.95565 174.45070 2063 ft 94 kts 39°
2026-04-19 01:03 -38.95078 174.45656 2018 ft 99 kts 45°
2026-04-19 01:03 -38.94603 174.46313 1991 ft 98 kts 41°
2026-04-19 01:03 -38.94103 174.46886 2002 ft 95 kts 36°
2026-04-19 01:03 -38.93566 174.47354 2005 ft 94 kts 31°
2026-04-19 01:04 -38.93002 174.47810 2001 ft 95 kts 31°
2026-04-19 01:04 -38.92456 174.48288 1999 ft 95 kts 31°
2026-04-19 01:04 -38.91909 174.48770 1991 ft 96 kts 32°
2026-04-19 01:04 -38.91372 174.49287 1995 ft 95 kts 36°
2026-04-19 01:05 -38.90856 174.49855 1976 ft 98 kts 41°
2026-04-19 01:05 -38.90361 174.50442 1980 ft 96 kts 41°
2026-04-19 01:05 -38.89952 174.50957 1991 ft 96 kts 40°
2026-04-19 01:05 -38.89455 174.51556 1994 ft 95 kts 42°
2026-04-19 01:06 -38.88952 174.52074 2095 ft 97 kts 37°
2026-04-19 01:06 -38.88433 174.52623 2116 ft 99 kts 37°
2026-04-19 01:06 -38.87880 174.53191 2079 ft 101 kts 36°
2026-04-19 01:06 -38.87336 174.53687 2119 ft 95 kts 39°
2026-04-19 01:07 -38.86819 174.54266 2036 ft 97 kts 34°
2026-04-19 01:07 -38.86283 174.54807 2000 ft 95 kts 35°
2026-04-19 01:07 -38.85730 174.55318 2040 ft 88 kts 32°
2026-04-19 01:07 -38.85227 174.55718 2110 ft 84 kts 27°
2026-04-19 01:08 -38.84656 174.56079 2071 ft 94 kts 23°
2026-04-19 01:08 -38.84054 174.56447 2007 ft 89 kts 27°
2026-04-19 01:08 -38.83518 174.56831 1682 ft 90 kts 30°
2026-04-19 01:08 -38.82961 174.57089 1342 ft 92 kts
2026-04-19 01:09 -38.82348 174.57207 1043 ft 90 kts 17°
2026-04-19 01:09 -38.81737 174.57561 656 ft 115 kts 36°
2026-04-19 01:09 -38.81109 174.58121 462 ft 106 kts 34°
2026-04-19 01:09 -38.80402 174.58461 442 ft 106 kts 19°
2026-04-19 01:10 -38.79739 174.58678 596 ft 99 kts 15°
2026-04-19 01:10 -38.79063 174.58917 576 ft 102 kts 17°
2026-04-19 01:10 -38.78386 174.59143 631 ft 100 kts 16°
2026-04-19 01:10 -38.77693 174.59398 627 ft 102 kts 17°
2026-04-19 01:11 -38.77018 174.59639 640 ft 100 kts 17°
2026-04-19 01:11 -38.76347 174.59894 638 ft 101 kts 15°
2026-04-19 01:11 -38.75664 174.60068 691 ft 97 kts
2026-04-19 01:11 -38.75005 174.60110 750 ft 93 kts
2026-04-19 01:12 -38.74368 174.60130 790 ft 92 kts 356°
2026-04-19 01:12 -38.73730 174.59955 809 ft 92 kts 359°
2026-04-19 01:12 -38.73095 174.60057 814 ft 92 kts 14°
2026-04-19 01:12 -38.72462 174.60164 842 ft 92 kts
2026-04-19 01:13 -38.71814 174.60179 870 ft 94 kts
2026-04-19 01:13 -38.71151 174.60333 908 ft 96 kts 17°
2026-04-19 01:13 -38.70535 174.60623 1008 ft 95 kts 25°
2026-04-19 01:13 -38.69899 174.60936 1012 ft 100 kts 15°
2026-04-19 01:14 -38.69208 174.61128 1037 ft 101 kts 11°
2026-04-19 01:14 -38.68520 174.61191 1153 ft 95 kts
2026-04-19 01:14 -38.67865 174.61310 1233 ft 95 kts 12°
2026-04-19 01:14 -38.67213 174.61504 1269 ft 97 kts 13°
2026-04-19 01:15 -38.66551 174.61682 1345 ft 95 kts 13°
2026-04-19 01:15 -38.65891 174.61862 1369 ft 99 kts 11°
2026-04-19 01:15 -38.65208 174.61984 1383 ft 101 kts
2026-04-19 01:15 -38.64490 174.62074 1373 ft 102 kts
2026-04-19 01:16 -38.63782 174.62209 1385 ft 102 kts
2026-04-19 01:16 -38.63058 174.62244 1355 ft 106 kts
2026-04-19 01:16 -38.62314 174.62280 1329 ft 105 kts
2026-04-19 01:16 -38.61577 174.62317 1289 ft 107 kts
2026-04-19 01:17 -38.60833 174.62408 1293 ft 105 kts 10°
2026-04-19 01:17 -38.60106 174.62552 1272 ft 105 kts 10°
2026-04-19 01:17 -38.59398 174.62692 1257 ft 99 kts 11°
2026-04-19 01:17 -38.58736 174.62788 1274 ft 90 kts
2026-04-19 01:18 -38.58103 174.62834 1346 ft 90 kts
2026-04-19 01:18 -38.57489 174.62862 1450 ft 88 kts
2026-04-19 01:18 -38.56884 174.62929 1576 ft 86 kts
2026-04-19 01:18 -38.56262 174.63046 1601 ft 91 kts
2026-04-19 01:19 -38.55630 174.63071 1644 ft 92 kts
2026-04-19 01:19 -38.54974 174.63039 1676 ft 95 kts 357°
2026-04-19 01:19 -38.54334 174.63162 1756 ft 91 kts 13°
2026-04-19 01:19 -38.53717 174.63274 1822 ft 93 kts 358°
2026-04-19 01:20 -38.53058 174.63158 1854 ft 94 kts 358°
2026-04-19 01:20 -38.52414 174.63124 1935 ft 90 kts
2026-04-19 01:20 -38.51793 174.63115 2001 ft 91 kts
2026-04-19 01:20 -38.51129 174.63152 1974 ft 96 kts
2026-04-19 01:21 -38.50455 174.63173 1991 ft 96 kts
2026-04-19 01:21 -38.49771 174.63167 1993 ft 98 kts
2026-04-19 01:21 -38.49081 174.63208 2006 ft 98 kts
2026-04-19 01:21 -38.48383 174.63205 1989 ft 101 kts 359°
2026-04-19 01:22 -38.47677 174.63219 1996 ft 99 kts
2026-04-19 01:22 -38.46967 174.63243 1967 ft 101 kts
2026-04-19 01:22 -38.46257 174.63238 1965 ft 101 kts
2026-04-19 01:22 -38.45558 174.63234 1985 ft 99 kts
2026-04-19 01:23 -38.44857 174.63223 1955 ft 102 kts
2026-04-19 01:23 -38.44143 174.63245 1959 ft 100 kts
2026-04-19 01:23 -38.43460 174.63380 2008 ft 97 kts 11°
2026-04-19 01:23 -38.42792 174.63525 2021 ft 97 kts 11°
2026-04-19 01:24 -38.42124 174.63696 2022 ft 98 kts 13°
2026-04-19 01:24 -38.41451 174.63890 2012 ft 98 kts 14°
2026-04-19 01:24 -38.40792 174.64110 2021 ft 98 kts 16°
2026-04-19 01:24 -38.40128 174.64349 2001 ft 98 kts 16°
2026-04-19 01:25 -38.39485 174.64609 2012 ft 97 kts 17°
2026-04-19 01:25 -38.38837 174.64903 1975 ft 100 kts 20°
2026-04-19 01:25 -38.38186 174.65221 2032 ft 96 kts 18°
2026-04-19 01:25 -38.37555 174.65524 2027 ft 97 kts 20°
2026-04-19 01:26 -38.36923 174.65881 1996 ft 99 kts 24°
2026-04-19 01:26 -38.36324 174.66341 1999 ft 100 kts 29°
2026-04-19 01:26 -38.35751 174.66873 2001 ft 101 kts 34°
2026-04-19 01:26 -38.35213 174.67452 2014 ft 101 kts 37°
2026-04-19 01:27 -38.34621 174.67947 1977 ft 102 kts 25°
2026-04-19 01:27 -38.33997 174.68372 1986 ft 100 kts 30°
2026-04-19 01:27 -38.33359 174.68649 2032 ft 95 kts
2026-04-19 01:27 -38.32717 174.68765 2105 ft 92 kts
2026-04-19 01:28 -38.32051 174.68790 2124 ft 96 kts
2026-04-19 01:28 -38.31352 174.68803 2043 ft 104 kts
2026-04-19 01:28 -38.30627 174.68799 2056 ft 102 kts
2026-04-19 01:28 -38.29923 174.68788 2054 ft 101 kts
2026-04-19 01:29 -38.29218 174.68793 2058 ft 99 kts
2026-04-19 01:29 -38.28524 174.68814 2066 ft 99 kts
2026-04-19 01:29 -38.27825 174.68855 2030 ft 102 kts
2026-04-19 01:29 -38.27123 174.68932 2037 ft 99 kts
2026-04-19 01:30 -38.26423 174.69066 2007 ft 101 kts
2026-04-19 01:30 -38.25720 174.69186 2013 ft 100 kts
2026-04-19 01:30 -38.25026 174.69260 2006 ft 101 kts
2026-04-19 01:30 -38.24324 174.69327 2010 ft 99 kts
2026-04-19 01:31 -38.23636 174.69395 1995 ft 100 kts
2026-04-19 01:31 -38.22942 174.69498 1962 ft 101 kts
2026-04-19 01:31 -38.22249 174.69612 1972 ft 99 kts
2026-04-19 01:31 -38.21560 174.69679 1965 ft 99 kts
2026-04-19 01:32 -38.20856 174.69702 1951 ft 100 kts
2026-04-19 01:32 -38.20159 174.69804 1950 ft 100 kts 12°
2026-04-19 01:32 -38.19494 174.70114 1924 ft 102 kts 21°
2026-04-19 01:32 -38.18845 174.70474 1933 ft 100 kts 22°
2026-04-19 01:33 -38.18238 174.70888 1940 ft 100 kts 27°
2026-04-19 01:33 -38.17652 174.71355 1970 ft 99 kts 30°
2026-04-19 01:33 -38.17063 174.71831 1963 ft 99 kts 27°
2026-04-19 01:33 -38.16452 174.72194 2021 ft 96 kts 17°
2026-04-19 01:34 -38.15796 174.72426 1991 ft 100 kts 14°
2026-04-19 01:34 -38.15123 174.72696 1963 ft 100 kts 20°
2026-04-19 01:34 -38.14483 174.73001 2010 ft 97 kts 18°
2026-04-19 01:34 -38.13869 174.73320 2076 ft 93 kts 24°
2026-04-19 01:35 -38.13255 174.73618 2039 ft 97 kts 14°
2026-04-19 01:35 -38.12589 174.73805 2077 ft 97 kts 13°
2026-04-19 01:35 -38.11945 174.74063 2156 ft 96 kts 18°
2026-04-19 01:35 -38.11327 174.74359 2227 ft 94 kts 20°
2026-04-19 01:36 -38.10711 174.74698 2226 ft 98 kts 21°
2026-04-19 01:36 -38.10079 174.75043 2240 ft 99 kts 21°
2026-04-19 01:36 -38.09449 174.75382 2288 ft 97 kts 20°
2026-04-19 01:36 -38.08839 174.75742 2323 ft 97 kts 23°
2026-04-19 01:37 -38.08219 174.76100 2335 ft 98 kts 19°
2026-04-19 01:37 -38.07565 174.76392 2316 ft 100 kts 17°
2026-04-19 01:37 -38.06894 174.76665 2283 ft 102 kts 14°
2026-04-19 01:37 -38.06208 174.76900 2265 ft 101 kts 13°
2026-04-19 01:38 -38.05514 174.77141 2241 ft 102 kts 16°
2026-04-19 01:38 -38.04848 174.77443 2222 ft 102 kts 19°
2026-04-19 01:38 -38.04172 174.77754 2167 ft 103 kts 18°
2026-04-19 01:38 -38.03494 174.78069 2119 ft 104 kts 21°
2026-04-19 01:39 -38.02833 174.78448 2081 ft 104 kts 21°
2026-04-19 01:39 -38.02179 174.78803 2067 ft 102 kts 19°
2026-04-19 01:39 -38.01503 174.79118 2024 ft 103 kts 17°
2026-04-19 01:39 -38.00841 174.79391 2054 ft 98 kts 15°
2026-04-19 01:40 -38.00174 174.79620 2043 ft 99 kts 13°
2026-04-19 01:40 -37.99504 174.79862 2035 ft 99 kts 15°
2026-04-19 01:40 -37.98852 174.80122 2038 ft 97 kts 17°
2026-04-19 01:40 -37.98206 174.80400 2041 ft 98 kts 17°
2026-04-19 01:41 -37.97561 174.80707 2029 ft 99 kts 19°
2026-04-19 01:41 -37.96914 174.81052 1965 ft 103 kts 24°
2026-04-19 01:41 -37.96279 174.81473 2015 ft 98 kts 20°
2026-04-19 01:41 -37.95640 174.81696 2077 ft 93 kts
2026-04-19 01:42 -37.94994 174.81862 2076 ft 96 kts 12°
2026-04-19 01:42 -37.94339 174.82014 2071 ft 97 kts
2026-04-19 01:42 -37.93011 174.82326 2103 ft 96 kts
2026-04-19 01:43 -37.92344 174.82465 2091 ft 98 kts
2026-04-19 01:43 -37.91679 174.82576 2140 ft 94 kts
2026-04-19 01:43 -37.91041 174.82667 2219 ft 89 kts
2026-04-19 01:43 -37.90390 174.82715 2162 ft 97 kts
2026-04-19 01:44 -37.89699 174.82773 2154 ft 97 kts
2026-04-19 01:44 -37.89052 174.82909 2191 ft 93 kts
2026-04-19 01:44 -37.88385 174.83020 2162 ft 97 kts
2026-04-19 01:44 -37.87717 174.83096 2197 ft 94 kts
2026-04-19 01:45 -37.87064 174.83115 2204 ft 95 kts
2026-04-19 01:45 -37.86385 174.83084 2189 ft 98 kts 356°
2026-04-19 01:45 -37.85716 174.83032 2253 ft 94 kts 358°
2026-04-19 01:45 -37.85053 174.82970 2233 ft 98 kts 357°
2026-04-19 01:46 -37.84372 174.82933 2249 ft 98 kts 358°
2026-04-19 01:46 -37.83694 174.82864 2290 ft 95 kts 354°
2026-04-19 01:46 -37.83031 174.82774 2317 ft 94 kts 356°
2026-04-19 01:46 -37.82374 174.82721 2315 ft 97 kts 358°
2026-04-19 01:47 -37.81691 174.82675 2324 ft 97 kts 357°
2026-04-19 01:47 -37.81015 174.82625 2254 ft 100 kts 359°
2026-04-19 01:47 -37.80329 174.82663 1954 ft 96 kts
2026-04-19 01:47 -37.79654 174.82684 1519 ft 99 kts
2026-04-19 01:48 -37.79000 174.82665 1270 ft 86 kts
2026-04-19 01:48 -37.78451 174.82651 1154 ft 77 kts
2026-04-19 01:48 -37.77891 174.82665 1077 ft 87 kts 359°
2026-04-19 01:48 -37.77296 174.82597 1073 ft 89 kts 354°
2026-04-19 01:49 -37.76636 174.82463 977 ft 98 kts 352°
2026-04-19 01:49 -37.75993 174.82314 1052 ft 91 kts 354°
2026-04-19 01:49 -37.75352 174.82158 1035 ft 95 kts 349°
2026-04-19 01:49 -37.74712 174.81973 1076 ft 92 kts 349°
2026-04-19 01:50 -37.74073 174.81795 1060 ft 95 kts 350°
2026-04-19 01:50 -37.73414 174.81686 1058 ft 96 kts 350°
2026-04-19 01:50 -37.72754 174.81486 1124 ft 98 kts 351°
2026-04-19 01:50 -37.72073 174.81276 1131 ft 100 kts 351°
2026-04-19 01:51 -37.71405 174.81065 1041 ft 103 kts 350°
2026-04-19 01:51 -37.70715 174.80887 1017 ft 100 kts 353°
2026-04-19 01:51 -37.70030 174.80725 1001 ft 100 kts 351°
2026-04-19 01:51 -37.69360 174.80539 1018 ft 99 kts 348°
2026-04-19 01:52 -37.68688 174.80316 1036 ft 97 kts 349°
2026-04-19 01:52 -37.68028 174.80141 1008 ft 99 kts 354°
2026-04-19 01:52 -37.67388 174.79913 1073 ft 96 kts 340°
2026-04-19 01:52 -37.66729 174.79623 998 ft 101 kts 353°
2026-04-19 01:53 -37.66026 174.79439 945 ft 102 kts 350°
2026-04-19 01:53 -37.65338 174.79246 965 ft 98 kts 350°
2026-04-19 01:53 -37.64674 174.79103 945 ft 100 kts 350°
2026-04-19 01:53 -37.63983 174.78883 890 ft 102 kts 348°
2026-04-19 01:54 -37.63263 174.78601 726 ft 108 kts 344°
2026-04-19 01:54 -37.62574 174.78311 748 ft 103 kts 345°
2026-04-19 01:54 -37.61943 174.78062 992 ft 88 kts 330°
2026-04-19 01:54 -37.61399 174.77634 1063 ft 94 kts 336°
2026-04-19 01:55 -37.60798 174.77304 1154 ft 92 kts 345°
2026-04-19 01:55 -37.60206 174.77072 1276 ft 88 kts 345°
2026-04-19 01:55 -37.59593 174.76819 1281 ft 95 kts 346°
2026-04-19 01:55 -37.58991 174.76567 1425 ft 89 kts 342°
2026-04-19 01:56 -37.58402 174.76257 1485 ft 91 kts 342°
2026-04-19 01:56 -37.57823 174.76047 1642 ft 83 kts 347°
2026-04-19 01:56 -37.57231 174.75832 1653 ft 91 kts 347°
2026-04-19 01:56 -37.56606 174.75667 1661 ft 96 kts 351°
2026-04-19 01:57 -37.55934 174.75548 1669 ft 97 kts 355°
2026-04-19 01:57 -37.55249 174.75499 1681 ft 98 kts 358°
2026-04-19 01:57 -37.54569 174.75478 1719 ft 97 kts 359°
2026-04-19 01:57 -37.53909 174.75427 1768 ft 94 kts 355°
2026-04-19 01:58 -37.53259 174.75337 1839 ft 92 kts 355°
2026-04-19 01:58 -37.52619 174.75323 1867 ft 94 kts
2026-04-19 01:58 -37.51975 174.75488 1909 ft 93 kts 17°
2026-04-19 01:58 -37.51398 174.75876 1945 ft 94 kts 29°
2026-04-19 01:59 -37.50848 174.76360 1967 ft 98 kts 30°
2026-04-19 01:59 -37.50292 174.76881 1990 ft 98 kts 32°
2026-04-19 01:59 -37.49765 174.77420 2029 ft 98 kts 33°
2026-04-19 01:59 -37.49218 174.77951 2060 ft 97 kts 31°
2026-04-19 02:00 -37.48642 174.78404 2072 ft 98 kts 23°
2026-04-19 02:00 -37.48034 174.78809 2070 ft 99 kts 23°
2026-04-19 02:00 -37.47428 174.79210 2078 ft 98 kts 28°
2026-04-19 02:00 -37.46830 174.79697 2005 ft 103 kts 29°
2026-04-19 02:01 -37.46255 174.80232 2000 ft 102 kts 35°
2026-04-19 02:01 -37.45716 174.80827 2003 ft 102 kts 35°
2026-04-19 02:01 -37.45170 174.81387 2034 ft 101 kts 34°
2026-04-19 02:01 -37.44665 174.82013 2046 ft 101 kts 41°
2026-04-19 02:02 -37.44181 174.82661 2051 ft 102 kts 40°
2026-04-19 02:02 -37.43669 174.83278 2009 ft 102 kts 36°
2026-04-19 02:02 -37.43115 174.83858 1972 ft 101 kts 34°
2026-04-19 02:02 -37.42590 174.84459 1968 ft 102 kts 40°
2026-04-19 02:03 -37.42084 174.85083 1931 ft 103 kts 36°
2026-04-19 02:03 -37.41530 174.85657 1919 ft 103 kts 33°
2026-04-19 02:03 -37.40958 174.86188 1905 ft 100 kts 26°
2026-04-19 02:03 -37.40327 174.86569 1889 ft 100 kts 17°
2026-04-19 02:04 -37.39676 174.86824 1924 ft 95 kts 13°
2026-04-19 02:04 -37.39019 174.87039 1910 ft 96 kts 12°
2026-04-19 02:04 -37.38369 174.87248 1892 ft 97 kts 12°
2026-04-19 02:04 -37.37727 174.87482 1928 ft 94 kts 13°
2026-04-19 02:05 -37.37070 174.87672 1907 ft 96 kts 12°
2026-04-19 02:05 -37.36415 174.87842 1918 ft 97 kts
2026-04-19 02:05 -37.35722 174.87918 1894 ft 97 kts
2026-04-19 02:05 -37.35054 174.87901 1904 ft 97 kts 358°
2026-04-19 02:06 -37.34375 174.87882 1883 ft 98 kts
2026-04-19 02:06 -37.33701 174.88057 1870 ft 98 kts 12°
2026-04-19 02:06 -37.33022 174.88261 1817 ft 101 kts 13°
2026-04-19 02:06 -37.32323 174.88531 1691 ft 109 kts 19°
2026-04-19 02:07 -37.31639 174.88888 1680 ft 103 kts 19°
2026-04-19 02:07 -37.30989 174.89206 1701 ft 99 kts 18°
2026-04-19 02:07 -37.30336 174.89537 1720 ft 98 kts 22°
2026-04-19 02:07 -37.29728 174.89990 1657 ft 105 kts 30°
2026-04-19 02:08 -37.29161 174.90552 1667 ft 102 kts 36°
2026-04-19 02:08 -37.28640 174.91167 1641 ft 104 kts 40°
2026-04-19 02:08 -37.28155 174.91870 1591 ft 106 kts 46°
2026-04-19 02:08 -37.27667 174.92560 1572 ft 104 kts 39°
2026-04-19 02:09 -37.27134 174.93144 1577 ft 101 kts 35°
2026-04-19 02:09 -37.26546 174.93655 1537 ft 102 kts 26°
2026-04-19 02:09 -37.25914 174.94063 1537 ft 99 kts 22°
2026-04-19 02:09 -37.25269 174.94336 1552 ft 97 kts 10°
2026-04-19 02:10 -37.24602 174.94453 1556 ft 97 kts
2026-04-19 02:10 -37.23935 174.94544 1580 ft 94 kts
2026-04-19 02:10 -37.23286 174.94698 1600 ft 96 kts 14°
2026-04-19 02:10 -37.22655 174.95006 1593 ft 97 kts 19°
2026-04-19 02:11 -37.21984 174.95125 1565 ft 98 kts
2026-04-19 02:11 -37.21304 174.95087 1597 ft 95 kts 359°
2026-04-19 02:11 -37.20634 174.95085 1594 ft 97 kts
2026-04-19 02:11 -37.19959 174.95091 1589 ft 98 kts
2026-04-19 02:12 -37.19283 174.95151 1600 ft 97 kts
2026-04-19 02:12 -37.18572 174.95248 1461 ft 106 kts
2026-04-19 02:12 -37.17862 174.95355 1491 ft 100 kts
2026-04-19 02:12 -37.17166 174.95418 1515 ft 98 kts
2026-04-19 02:13 -37.16501 174.95528 1569 ft 94 kts
2026-04-19 02:13 -37.15849 174.95610 1602 ft 93 kts
2026-04-19 02:13 -37.15205 174.95674 1629 ft 93 kts
2026-04-19 02:13 -37.14547 174.95604 1642 ft 94 kts 352°
2026-04-19 02:14 -37.13948 174.95494 1647 ft 95 kts 354°
2026-04-19 02:14 -37.13833 174.95476 1646 ft 95 kts 353°
2026-04-19 02:15 -37.13179 174.95346 1659 ft 95 kts 352°
2026-04-19 02:15 -37.12517 174.95219 1673 ft 95 kts 355°
2026-04-19 02:15 -37.11844 174.95190 1667 ft 97 kts
2026-04-19 02:15 -37.11159 174.95206 1627 ft 99 kts
2026-04-19 02:16 -37.10478 174.95204 1666 ft 95 kts
2026-04-19 02:16 -37.09798 174.95242 1623 ft 99 kts
2026-04-19 02:16 -37.09115 174.95322 1509 ft 99 kts 10°
2026-04-19 02:16 -37.08461 174.95493 1429 ft 94 kts 14°
2026-04-19 02:17 -37.07836 174.95705 1331 ft 86 kts 17°
2026-04-19 02:17 -37.07288 174.95938 1240 ft 81 kts 12°
2026-04-19 02:17 -37.06711 174.95966 1178 ft 86 kts 358°
2026-04-19 02:17 -37.06117 174.95859 1137 ft 87 kts 350°
2026-04-19 02:18 -37.05542 174.95674 1064 ft 71 kts 350°
2026-04-19 02:18 -37.05074 174.95502 901 ft 74 kts 346°
2026-04-19 02:18 -37.04660 174.95425 800 ft 52 kts 25°
2026-04-19 02:18 -37.04372 174.95666 670 ft 49 kts 34°
2026-04-19 02:19 -37.04114 174.95962 576 ft 53 kts 41°
2026-04-19 02:19 -37.03871 174.96291 486 ft 49 kts 41°
2026-04-19 02:19 -37.03631 174.96602 340 ft 51 kts 41°
2026-04-19 02:20 -37.03148 174.97218 110 ft 38 kts 46°
2026-04-19 02:20 -37.03038 174.97366 110 ft 9 kts 86°
2026-04-19 02:20 -37.03071 174.97382 110 ft 0 kts 242°
2026-04-19 02:20 -37.03091 174.97348 110 ft 7 kts 235°
2026-04-19 02:21 -37.03135 174.97292 110 ft 10 kts 223°
2026-04-19 02:21 -37.03188 174.97226 110 ft 10 kts 229°
2026-04-19 02:21 -37.03228 174.97182 110 ft 4 kts 163°
2026-04-19 02:21 -37.03271 174.97218 110 ft 10 kts 145°
2026-04-19 02:22 -37.03301 174.97273 110 ft 6 kts 52°
2026-04-19 02:22 -37.03303 174.97308 110 ft 6 kts 167°
2026-04-19 02:22 -37.03337 174.97281 110 ft 9 kts 219°
2026-04-19 02:23 -37.03339 174.97278 110 ft 9 kts 219°
2026-04-19 02:23 -37.03391 174.97232 110 ft 7 kts 197°
2026-04-19 02:23 -37.03416 174.97260 110 ft 5 kts 85°
2026-04-19 02:23 -37.03390 174.97270 110 ft 1 kts 314°